Time;durP1;ratioP1;P1;durP2;ratioP2;P2;SDS_P1;SDS_P2;PMS_P1;PMS_P2;Temp;Humidity;BMP_temperature;BMP_pressure;BME280_temperature;BME280_humidity;BME280_pressure;Samples;Min_cycle;Max_cycle;Signal;HPM_P1;HPM_P2
2023/06/09 00:01:59;;;;;;;;;;;;;;;17.87;62.77;101305.48;108740;1260;59064;-80
2023/06/09 00:04:26;;;;;;;;;;;;;;;17.92;62.90;101309.77;108654;1261;124708;-80
2023/06/09 00:06:52;;;;;;;;;;;;;;;17.97;63.24;101311.91;108409;1265;71087;-81
2023/06/09 00:09:20;;;;;;;;;;;;;;;18.01;63.67;101313.34;108403;1265;126096;-80
2023/06/09 00:11:46;;;;;;;;;;;;;;;18.04;63.92;101311.23;108558;1260;60038;-80
2023/06/09 00:14:13;;;;;;;;;;;;;;;18.08;64.18;101298.98;108744;1260;74758;-80
2023/06/09 00:16:46;;;;;;;;;;;;;;;18.09;64.56;101297.91;108600;1260;124945;-80
2023/06/09 00:19:12;;;;;;;;;;;;;;;18.12;64.74;101297.92;108644;1260;72471;-80
2023/06/09 00:21:39;;;;;;;;;;;;;;;18.12;65.06;101299.89;108540;1261;125669;-80
2023/06/09 00:24:05;;;;;;;;;;;;;;;18.13;65.37;101300.25;108613;1265;59528;-80
2023/06/09 00:26:32;;;;;;;;;;;;;;;18.13;65.46;101301.13;108700;1260;74658;-80
2023/06/09 00:28:58;;;;;;;;;;;;;;;18.13;65.71;101298.64;108539;1261;124905;-81
2023/06/09 00:31:24;;;;;;;;;;;;;;;18.12;65.84;101295.27;108704;1260;59903;-81
2023/06/09 00:33:50;;;;;;;;;;;;;;;18.12;66.10;101297.05;108454;1261;125478;-81
2023/06/09 00:36:17;;;;;;;;;;;;;;;18.11;66.27;101297.56;108720;1260;59229;-81
2023/06/09 00:38:43;;;;;;;;;;;;;;;18.11;66.38;101296.86;108679;1261;59073;-81
2023/06/09 00:41:09;;;;;;;;;;;;;;;18.10;66.52;101291.36;108465;1261;126050;-81
2023/06/09 00:43:35;;;;;;;;;;;;;;;18.10;66.58;101295.27;108714;1263;59375;-81
2023/06/09 00:46:03;;;;;;;;;;;;;;;18.11;66.71;101289.75;108577;1261;125663;-83
2023/06/09 00:48:30;;;;;;;;;;;;;;;18.11;66.75;101288.87;107233;1267;60006;-84
2023/06/09 00:50:57;;;;;;;;;;;;;;;18.10;66.83;101288.33;107272;1260;61884;-84
2023/06/09 00:53:24;;;;;;;;;;;;;;;18.09;66.89;101283.17;107302;1260;125259;-83
2023/06/09 00:55:51;;;;;;;;;;;;;;;18.07;66.99;101281.94;108640;1264;71416;-83
2023/06/09 00:58:18;;;;;;;;;;;;;;;18.04;67.05;101281.57;108598;1260;125272;-83
2023/06/09 01:00:44;;;;;;;;;;;;;;;18.02;67.15;101288.67;108586;1260;59074;-83
2023/06/09 01:03:10;;;;;;;;;;;;;;;18.02;67.30;101294.52;108470;1260;124958;-81
2023/06/09 01:05:37;;;;;;;;;;;;;;;18.00;67.41;101290.27;108585;1260;66533;-81
2023/06/09 01:08:22;;;;;;;;;;;;;;;17.98;67.49;101296.48;108552;1261;73060;-80
2023/06/09 01:11:02;;;;;;;;;;;;;;;17.95;67.52;101292.91;108566;1261;125159;-81
2023/06/09 01:13:47;;;;;;;;;;;;;;;17.92;67.68;101287.04;108708;1260;59900;-81
2023/06/09 01:16:16;;;;;;;;;;;;;;;17.88;67.79;101289.87;108494;1264;124807;-81
2023/06/09 01:18:43;;;;;;;;;;;;;;;17.84;67.79;101287.17;108588;1260;67183;-81
2023/06/09 01:21:15;;;;;;;;;;;;;;;17.80;67.86;101286.61;108413;1260;125398;-81
2023/06/09 01:23:44;;;;;;;;;;;;;;;17.77;67.98;101288.02;108594;1260;59202;-81
2023/06/09 01:26:11;;;;;;;;;;;;;;;17.73;68.00;101283.56;108690;1260;60871;-81
2023/06/09 01:28:38;;;;;;;;;;;;;;;17.70;68.04;101280.89;107016;1260;125245;-81
2023/06/09 01:31:04;;;;;;;;;;;;;;;17.66;68.08;101279.98;107271;1260;65827;-81
2023/06/09 01:33:30;;;;;;;;;;;;;;;17.64;68.19;101284.05;107007;1261;125451;-80
2023/06/09 01:35:57;;;;;;;;;;;;;;;17.62;68.13;101282.09;107298;1264;61195;-80
2023/06/09 01:38:23;;;;;;;;;;;;;;;17.61;68.23;101281.73;107240;1263;60503;-80
2023/06/09 01:40:49;;;;;;;;;;;;;;;17.59;68.28;101282.43;107210;1260;125735;-80
2023/06/09 01:43:16;;;;;;;;;;;;;;;17.55;68.29;101283.83;107246;1261;61356;-83
2023/06/09 01:45:43;;;;;;;;;;;;;;;17.53;68.34;101289.33;108385;1260;125554;-82
2023/06/09 01:48:09;;;;;;;;;;;;;;;17.52;68.29;101284.52;108693;1263;59900;-82
2023/06/09 01:50:42;;;;;;;;;;;;;;;17.48;68.34;101280.98;108703;1260;59056;-82
2023/06/09 01:53:09;;;;;;;;;;;;;;;17.43;68.38;101284.14;108511;1260;125948;-83
2023/06/09 01:55:37;;;;;;;;;;;;;;;17.39;68.41;101282.68;108706;1260;67104;-82
2023/06/09 01:58:12;;;;;;;;;;;;;;;17.34;68.47;101279.65;108482;1260;125223;-83
2023/06/09 02:00:38;;;;;;;;;;;;;;;17.29;68.44;101280.86;108723;1260;60196;-82
2023/06/09 02:03:05;;;;;;;;;;;;;;;17.25;68.51;101284.21;108717;1260;59248;-82
2023/06/09 02:05:32;;;;;;;;;;;;;;;17.21;68.55;101284.71;108583;1260;73882;-83
2023/06/09 02:08:00;;;;;;;;;;;;;;;17.17;68.63;101284.86;108667;1260;59519;-83
2023/06/09 02:10:26;;;;;;;;;;;;;;;17.14;68.66;101287.50;108582;1261;124796;-82
2023/06/09 02:12:53;;;;;;;;;;;;;;;17.12;68.70;101286.79;108619;1260;58975;-82
2023/06/09 02:15:19;;;;;;;;;;;;;;;17.08;68.73;101288.89;107536;1261;125392;-82
2023/06/09 02:17:45;;;;;;;;;;;;;;;17.05;68.78;101286.38;107408;1263;60996;-82
2023/06/09 02:20:12;;;;;;;;;;;;;;;17.01;68.92;101287.23;107199;1260;61424;-82
2023/06/09 02:22:38;;;;;;;;;;;;;;;16.97;68.87;101289.17;107067;1260;125445;-82
2023/06/09 02:25:06;;;;;;;;;;;;;;;16.95;69.06;101288.43;107209;1261;61350;-82
2023/06/09 02:27:32;;;;;;;;;;;;;;;16.92;69.13;101288.59;108372;1266;147350;-82
2023/06/09 02:29:58;;;;;;;;;;;;;;;16.91;69.05;101291.42;108506;1260;59447;-82
2023/06/09 02:32:24;;;;;;;;;;;;;;;16.89;69.16;101290.52;108582;1266;59297;-82
2023/06/09 02:34:51;;;;;;;;;;;;;;;16.89;69.19;101292.13;108487;1260;124760;-82
2023/06/09 02:37:19;;;;;;;;;;;;;;;16.89;69.21;101291.95;108672;1260;59286;-82
2023/06/09 02:39:45;;;;;;;;;;;;;;;16.89;69.24;101297.27;108464;1260;125587;-82
2023/06/09 02:42:12;;;;;;;;;;;;;;;16.89;69.10;101296.56;108542;1260;59679;-82
2023/06/09 02:44:39;;;;;;;;;;;;;;;16.90;69.23;101294.79;108620;1260;64887;-82
2023/06/09 02:47:05;;;;;;;;;;;;;;;16.92;69.35;101299.76;108076;1260;125384;-82
2023/06/09 02:49:31;;;;;;;;;;;;;;;16.94;69.23;101298.71;107320;1259;61334;-82
2023/06/09 02:51:58;;;;;;;;;;;;;;;16.97;69.37;101298.02;107289;1266;125770;-82
2023/06/09 02:54:24;;;;;;;;;;;;;;;16.99;69.29;101301.59;107503;1260;60872;-82
2023/06/09 02:56:52;;;;;;;;;;;;;;;17.00;69.09;101302.48;107238;1261;62285;-82
2023/06/09 02:59:19;;;;;;;;;;;;;;;17.01;68.97;101302.14;107162;1260;125211;-82
2023/06/09 03:01:45;;;;;;;;;;;;;;;17.01;68.87;101303.55;107311;1260;61183;-82
2023/06/09 03:04:11;;;;;;;;;;;;;;;17.02;68.84;101303.02;107086;1260;124572;-82
2023/06/09 03:06:39;;;;;;;;;;;;;;;17.03;68.90;101303.56;107531;1261;60309;-82
2023/06/09 03:09:06;;;;;;;;;;;;;;;17.04;68.81;101306.42;107616;1260;67580;-83
2023/06/09 03:11:32;;;;;;;;;;;;;;;17.05;68.81;101306.07;107307;1260;124584;-83
2023/06/09 03:13:58;;;;;;;;;;;;;;;17.08;68.73;101309.45;107357;1263;59746;-81
2023/06/09 03:16:25;;;;;;;;;;;;;;;17.12;68.77;101306.48;107283;1260;125034;-81
2023/06/09 03:18:51;;;;;;;;;;;;;;;17.17;68.77;101310.59;107281;1260;61021;-81
2023/06/09 03:21:23;;;;;;;;;;;;;;;17.24;68.60;101309.92;107371;1260;124751;-81
2023/06/09 03:23:49;;;;;;;;;;;;;;;17.31;68.68;101310.49;107711;1260;72663;-81
2023/06/09 03:26:15;;;;;;;;;;;;;;;17.38;68.61;101308.94;107427;1260;61420;-81
2023/06/09 03:28:41;;;;;;;;;;;;;;;17.47;68.49;101311.30;107143;1260;124577;-81
2023/06/09 03:31:08;;;;;;;;;;;;;;;17.55;68.30;101307.60;107347;1260;61350;-81
2023/06/09 03:33:34;;;;;;;;;;;;;;;17.61;68.27;101312.98;107402;1260;124391;-81
2023/06/09 03:36:00;;;;;;;;;;;;;;;17.68;68.08;101314.59;107494;1260;61354;-81
2023/06/09 03:38:27;;;;;;;;;;;;;;;17.77;68.00;101315.88;107287;1265;60562;-81
2023/06/09 03:40:53;;;;;;;;;;;;;;;17.85;67.88;101318.61;107320;1260;125251;-81
2023/06/09 03:43:19;;;;;;;;;;;;;;;17.95;67.71;101324.88;107597;1261;59982;-81
2023/06/09 03:45:46;;;;;;;;;;;;;;;18.02;67.52;101324.20;108432;1264;125116;-81
2023/06/09 03:48:12;;;;;;;;;;;;;;;18.08;67.36;101323.86;108561;1260;59498;-81
2023/06/09 03:50:40;;;;;;;;;;;;;;;18.13;67.23;101321.73;108630;1260;59300;-81
2023/06/09 03:53:06;;;;;;;;;;;;;;;18.19;67.21;101327.08;108489;1263;125585;-81
2023/06/09 03:55:33;;;;;;;;;;;;;;;18.26;67.07;101330.30;108640;1260;59396;-81
2023/06/09 03:57:59;;;;;;;;;;;;;;;18.33;66.89;101327.48;108407;1260;125419;-81
2023/06/09 04:00:26;;;;;;;;;;;;;;;18.38;66.81;101327.31;108500;1260;59329;-80
2023/06/09 04:02:52;;;;;;;;;;;;;;;18.43;66.69;101332.11;108469;1260;59364;-80
2023/06/09 04:05:20;;;;;;;;;;;;;;;18.51;66.59;101335.15;107784;1260;125753;-81
2023/06/09 04:07:46;;;;;;;;;;;;;;;18.63;66.58;101333.75;107520;1261;74842;-81
2023/06/09 04:10:12;;;;;;;;;;;;;;;18.75;66.32;101334.29;107575;1260;125731;-81
2023/06/09 04:12:41;;;;;;;;;;;;;;;18.82;66.25;101335.38;107656;1260;60077;-82
2023/06/09 04:15:08;;;;;;;;;;;;;;;18.90;66.03;101334.85;107601;1261;125507;-81
2023/06/09 04:17:36;;;;;;;;;;;;;;;18.95;65.94;101336.98;107537;1260;60010;-81
2023/06/09 04:20:04;;;;;;;;;;;;;;;18.99;65.84;101333.79;107538;1260;73522;-85
2023/06/09 04:22:31;;;;;;;;;;;;;;;19.04;65.84;101331.11;107449;1260;125428;-82
2023/06/09 04:24:57;;;;;;;;;;;;;;;19.14;65.75;101331.13;107325;1260;60007;-81
2023/06/09 04:27:25;;;;;;;;;;;;;;;19.21;65.56;101333.23;107371;1260;125647;-81
2023/06/09 04:29:51;;;;;;;;;;;;;;;19.26;65.55;101329.50;107637;1260;60953;-82
2023/06/09 04:32:18;;;;;;;;;;;;;;;19.29;65.41;101331.27;107312;1260;59942;-81
2023/06/09 04:34:45;;;;;;;;;;;;;;;19.32;65.32;101332.86;107121;1260;124162;-82
2023/06/09 04:37:12;;;;;;;;;;;;;;;19.32;65.28;101335.89;107342;1262;73049;-81
2023/06/09 04:39:45;;;;;;;;;;;;;;;19.35;65.33;101335.70;107222;1260;124846;-81
2023/06/09 04:42:12;;;;;;;;;;;;;;;19.40;65.22;101339.95;107263;1261;60580;-81
2023/06/09 04:44:39;;;;;;;;;;;;;;;19.42;65.08;101333.73;107551;1260;60509;-82
2023/06/09 04:47:05;;;;;;;;;;;;;;;19.42;65.02;101330.17;107327;1260;124402;-82
2023/06/09 04:49:31;;;;;;;;;;;;;;;19.42;65.15;101329.98;107652;1260;59641;-82
2023/06/09 04:51:58;;;;;;;;;;;;;;;19.40;65.22;101329.28;107505;1260;124983;-81
2023/06/09 04:54:28;;;;;;;;;;;;;;;19.41;65.26;101329.99;107487;1261;59584;-82
2023/06/09 04:56:57;;;;;;;;;;;;;;;19.45;65.42;101330.16;107627;1260;74446;-81
2023/06/09 04:59:24;;;;;;;;;;;;;;;19.50;65.47;101328.90;107476;1260;123989;-81
2023/06/09 05:02:00;;;;;;;;;;;;;;;19.56;65.54;101332.63;107488;1260;72495;-82
2023/06/09 05:04:26;;;;;;;;;;;;;;;19.61;65.76;101328.16;107238;1260;124710;-80
2023/06/09 05:06:52;;;;;;;;;;;;;;;19.67;65.97;101325.65;107350;1260;61528;-81
2023/06/09 05:09:19;;;;;;;;;;;;;;;19.73;65.97;101326.73;107489;1260;125053;-80
2023/06/09 05:11:45;;;;;;;;;;;;;;;19.81;66.03;101332.77;107740;1261;59388;-80
2023/06/09 05:14:11;;;;;;;;;;;;;;;20.01;66.50;101332.13;107558;1260;61374;-80
2023/06/09 05:16:38;;;;;;;;;;;;;;;21.16;68.36;101330.59;107367;1260;125000;-81
2023/06/09 05:19:04;;;;;;;;;;;;;;;23.51;68.20;101331.55;107329;1260;61402;-81
2023/06/09 05:21:30;;;;;;;;;;;;;;;25.88;65.82;101332.36;107161;1261;125254;-81
2023/06/09 05:23:57;;;;;;;;;;;;;;;27.67;61.71;101333.60;107531;1260;59572;-81
2023/06/09 05:26:23;;;;;;;;;;;;;;;29.09;59.23;101331.94;107518;1261;59376;-81
2023/06/09 05:28:49;;;;;;;;;;;;;;;30.49;57.13;101332.78;107409;1260;124680;-81
2023/06/09 05:31:16;;;;;;;;;;;;;;;32.04;54.91;101336.49;107707;1260;59359;-81
2023/06/09 05:33:46;;;;;;;;;;;;;;;33.58;52.45;101337.66;107669;1260;125367;-81
2023/06/09 05:36:15;;;;;;;;;;;;;;;34.79;49.51;101342.33;107261;1262;61618;-81
2023/06/09 05:38:42;;;;;;;;;;;;;;;35.12;46.58;101340.11;107513;1260;60221;-81
2023/06/09 05:41:09;;;;;;;;;;;;;;;34.18;44.14;101343.71;107474;1263;124593;-81
2023/06/09 05:43:48;;;;;;;;;;;;;;;32.42;43.58;101347.08;107510;1264;62258;-85
2023/06/09 05:46:14;;;;;;;;;;;;;;;30.50;43.79;101350.77;107144;1262;124198;-82
2023/06/09 05:48:40;;;;;;;;;;;;;;;29.03;44.88;101354.62;107453;1260;60908;-82
2023/06/09 05:51:07;;;;;;;;;;;;;;;28.01;45.75;101354.89;107729;1260;59284;-81
2023/06/09 05:53:34;;;;;;;;;;;;;;;27.17;46.38;101355.73;107819;1262;59666;-81
2023/06/09 05:56:00;;;;;;;;;;;;;;;26.43;47.19;101347.69;107924;1261;60378;-81
2023/06/09 05:58:27;;;;;;;;;;;;;;;25.97;47.96;101353.40;107681;1260;124684;-82
2023/06/09 06:00:57;;;;;;;;;;;;;;;25.69;48.65;101355.78;107495;1260;61360;-83
2023/06/09 06:03:27;;;;;;;;;;;;;;;25.36;48.88;101362.08;107177;1260;125084;-81
2023/06/09 06:05:53;;;;;;;;;;;;;;;24.95;49.13;101360.80;107623;1260;60065;-81
2023/06/09 06:08:20;;;;;;;;;;;;;;;24.74;49.86;101363.63;107445;1260;61377;-81
2023/06/09 06:10:47;;;;;;;;;;;;;;;24.67;50.23;101360.21;107129;1262;124377;-81
2023/06/09 06:13:15;;;;;;;;;;;;;;;24.63;50.53;101361.56;107447;1260;65857;-81
2023/06/09 06:15:41;;;;;;;;;;;;;;;24.57;50.45;101361.91;107181;1264;124994;-81
2023/06/09 06:18:08;;;;;;;;;;;;;;;24.44;50.56;101361.81;108539;1260;59835;-79
2023/06/09 06:20:34;;;;;;;;;;;;;;;24.31;50.78;101367.84;108695;1260;60224;-81
2023/06/09 06:23:33;;;;;;;;;;;;;;;24.17;50.98;101367.80;108483;1260;124571;-81
2023/06/09 06:26:00;;;;;;;;;;;;;;;24.22;51.15;101370.00;108602;1260;67678;-82
2023/06/09 06:28:28;;;;;;;;;;;;;;;24.15;50.73;101366.56;108516;1260;124968;-81
2023/06/09 06:30:54;;;;;;;;;;;;;;;24.00;50.69;101366.89;108476;1260;59497;-82
2023/06/09 06:33:20;;;;;;;;;;;;;;;23.89;50.87;101364.27;108353;1260;124923;-81
2023/06/09 06:35:46;;;;;;;;;;;;;;;23.84;50.98;101362.56;108540;1260;59498;-81
2023/06/09 06:38:13;;;;;;;;;;;;;;;23.77;50.93;101366.08;108660;1260;59555;-81
2023/06/09 06:40:41;;;;;;;;;;;;;;;23.71;51.16;101371.04;108514;1260;124546;-81
2023/06/09 06:43:07;;;;;;;;;;;;;;;23.68;51.26;101375.92;108451;1260;59396;-80
2023/06/09 06:45:33;;;;;;;;;;;;;;;23.69;51.24;101375.91;108531;1260;124243;-82
2023/06/09 06:48:00;;;;;;;;;;;;;;;23.76;51.40;101375.95;108559;1260;59172;-81
2023/06/09 06:50:27;;;;;;;;;;;;;;;23.83;51.24;101373.70;108653;1260;59442;-79
2023/06/09 06:52:54;;;;;;;;;;;;;;;23.83;51.09;101384.08;108402;1260;124234;-80
2023/06/09 06:55:41;;;;;;;;;;;;;;;23.80;51.28;101381.45;108584;1260;59341;-80
2023/06/09 06:58:07;;;;;;;;;;;;;;;23.78;51.50;101388.64;108549;1260;124076;-80
2023/06/09 07:00:35;;;;;;;;;;;;;;;23.71;51.74;101387.52;108517;1260;74635;-77
2023/06/09 07:03:01;;;;;;;;;;;;;;;23.78;51.84;101395.64;108603;1260;67078;-80
2023/06/09 07:05:28;;;;;;;;;;;;;;;23.79;51.56;101397.41;108556;1260;124002;-80
2023/06/09 07:07:56;;;;;;;;;;;;;;;23.79;51.61;101398.48;108532;1260;59275;-82
2023/06/09 07:10:23;;;;;;;;;;;;;;;23.78;51.62;101397.23;108633;1260;124310;-82
2023/06/09 07:12:50;;;;;;;;;;;;;;;23.79;51.67;101404.22;108580;1261;73505;-80
2023/06/09 07:15:16;;;;;;;;;;;;;;;23.90;51.72;101405.98;108421;1260;124881;-79
2023/06/09 07:17:43;;;;;;;;;;;;;;;24.04;51.76;101397.28;108535;1260;59926;-80
2023/06/09 07:20:10;;;;;;;;;;;;;;;24.20;51.83;101394.96;108439;1260;59484;-79
2023/06/09 07:22:46;;;;;;;;;;;;;;;24.36;51.68;101397.33;108493;1260;124907;-79
2023/06/09 07:25:13;;;;;;;;;;;;;;;24.42;51.49;101398.09;108495;1260;76027;-79
2023/06/09 07:27:40;;;;;;;;;;;;;;;24.35;51.26;101400.03;108405;1260;124656;-79
2023/06/09 07:30:07;;;;;;;;;;;;;;;24.20;51.15;101400.35;108649;1260;59390;-80
2023/06/09 07:32:34;;;;;;;;;;;;;;;23.97;51.34;101397.97;108486;1260;59207;-79
2023/06/09 07:35:00;;;;;;;;;;;;;;;23.77;51.56;101400.67;108442;1260;124887;-78
2023/06/09 07:37:27;;;;;;;;;;;;;;;23.56;51.67;101401.23;108578;1260;59161;-79
2023/06/09 07:39:53;;;;;;;;;;;;;;;23.45;51.88;101402.33;108400;1260;124824;-79
2023/06/09 07:42:20;;;;;;;;;;;;;;;23.38;52.02;101399.03;108614;1260;72922;-79
2023/06/09 07:44:47;;;;;;;;;;;;;;;23.38;52.52;101401.92;108648;1260;59276;-79
2023/06/09 07:47:13;;;;;;;;;;;;;;;23.39;52.41;101407.45;108480;1260;124761;-79
2023/06/09 07:49:52;;;;;;;;;;;;;;;23.35;52.47;101401.77;108651;1260;74519;-79
2023/06/09 07:52:18;;;;;;;;;;;;;;;23.38;52.50;101405.49;108543;1260;124510;-78
2023/06/09 07:54:44;;;;;;;;;;;;;;;23.37;52.54;101403.73;108534;1261;59385;-79
2023/06/09 07:57:11;;;;;;;;;;;;;;;23.33;52.66;101409.70;108372;1261;124752;-79
2023/06/09 07:59:57;;;;;;;;;;;;;;;23.28;52.29;101412.48;108538;1260;59428;-79
2023/06/09 08:02:24;;;;;;;;;;;;;;;23.23;52.40;101415.24;108688;1260;73641;-79
2023/06/09 08:04:50;;;;;;;;;;;;;;;23.20;52.30;101417.98;108638;1260;124302;-79
2023/06/09 08:07:16;;;;;;;;;;;;;;;23.11;52.30;101416.16;108701;1260;59323;-79
2023/06/09 08:09:43;;;;;;;;;;;;;;;23.05;52.72;101418.58;108633;1260;124469;-80
2023/06/09 08:12:10;;;;;;;;;;;;;;;23.03;52.79;101417.71;108623;1262;60052;-80
2023/06/09 08:14:36;;;;;;;;;;;;;;;23.05;52.91;101422.00;108465;1261;74700;-87
2023/06/09 08:17:03;;;;;;;;;;;;;;;23.03;52.70;101418.24;107019;1260;124868;-85
2023/06/09 08:19:30;;;;;;;;;;;;;;;23.04;52.98;101420.58;107112;1264;72644;-85
2023/06/09 08:21:58;;;;;;;;;;;;;;;23.04;52.95;101416.98;107088;1260;124767;-85
2023/06/09 08:24:27;;;;;;;;;;;;;;;23.07;52.97;101422.66;107259;1260;60393;-85
2023/06/09 08:26:54;;;;;;;;;;;;;;;23.02;52.84;101420.05;107359;1260;74469;-87
2023/06/09 08:29:21;;;;;;;;;;;;;;;23.02;52.80;101421.11;107366;1261;124946;-86
2023/06/09 08:31:48;;;;;;;;;;;;;;;23.02;52.77;101421.47;107321;1260;70773;-86
2023/06/09 08:34:30;;;;;;;;;;;;;;;23.04;52.70;101424.86;106974;1260;124695;-86
2023/06/09 08:37:12;;;;;;;;;;;;;;;22.94;52.75;101423.91;107195;1261;62067;-86
2023/06/09 08:39:51;;;;;;;;;;;;;;;22.93;52.84;101432.34;106908;1262;124346;-86
2023/06/09 08:42:27;;;;;;;;;;;;;;;22.90;53.25;101432.05;106931;1260;67079;-87
2023/06/09 08:44:56;;;;;;;;;;;;;;;22.96;53.22;101430.16;107426;1261;72765;-86
2023/06/09 08:47:25;;;;;;;;;;;;;;;22.97;53.22;101434.08;107294;1260;124806;-87
2023/06/09 08:49:59;;;;;;;;;;;;;;;22.99;53.18;101433.85;107078;1260;59948;-86
2023/06/09 08:52:32;;;;;;;;;;;;;;;22.99;53.26;101437.27;107166;1260;124339;-86
2023/06/09 08:54:59;;;;;;;;;;;;;;;23.08;53.31;101436.63;107421;1260;65017;-86
2023/06/09 08:57:28;;;;;;;;;;;;;;;23.14;53.13;101440.64;107310;1260;124810;-86
2023/06/09 08:59:59;;;;;;;;;;;;;;;23.15;52.91;101441.89;104714;1265;3584791;-87
2023/06/09 09:02:26;;;;;;;;;;;;;;;23.15;52.79;101447.80;107360;1260;59989;-88
2023/06/09 09:04:54;;;;;;;;;;;;;;;23.12;52.62;101440.33;107084;1264;124514;-88
2023/06/09 09:07:21;;;;;;;;;;;;;;;23.18;52.62;101444.52;107214;1260;65571;-88
2023/06/09 09:09:58;;;;;;;;;;;;;;;23.23;52.66;101445.69;107167;1259;124496;-87
2023/06/09 09:12:27;;;;;;;;;;;;;;;23.29;52.53;101442.36;107163;1264;61255;-87
2023/06/09 09:14:56;;;;;;;;;;;;;;;23.28;52.47;101441.48;107187;1260;60653;-87
2023/06/09 09:17:28;;;;;;;;;;;;;;;23.28;52.50;101443.81;107196;1260;124315;-87
2023/06/09 09:19:55;;;;;;;;;;;;;;;23.31;52.37;101447.52;107146;1261;65794;-85
2023/06/09 09:22:21;;;;;;;;;;;;;;;23.30;52.24;101448.98;107063;1260;124342;-85
2023/06/09 09:24:49;;;;;;;;;;;;;;;23.29;52.22;101447.56;107114;1260;61287;-87
2023/06/09 09:27:19;;;;;;;;;;;;;;;23.29;52.04;101443.62;107170;1260;124300;-85
2023/06/09 09:29:46;;;;;;;;;;;;;;;23.26;52.03;101449.75;107407;1260;73348;-87
2023/06/09 09:32:12;;;;;;;;;;;;;;;23.18;51.93;101447.38;107450;1260;65828;-86
2023/06/09 09:34:41;;;;;;;;;;;;;;;23.16;51.93;101444.02;107361;1260;125725;-86
2023/06/09 09:37:21;;;;;;;;;;;;;;;23.23;51.94;101444.44;107133;1260;59261;-87
2023/06/09 09:39:51;;;;;;;;;;;;;;;23.32;51.80;101446.77;107108;1260;124933;-86
2023/06/09 09:42:19;;;;;;;;;;;;;;;23.33;51.65;101445.55;107189;1260;74762;-86
2023/06/09 09:44:52;;;;;;;;;;;;;;;23.34;51.64;101443.73;107389;1261;66014;-86
2023/06/09 09:47:25;;;;;;;;;;;;;;;23.34;51.49;101443.90;107195;1261;124859;-86
2023/06/09 09:50:04;;;;;;;;;;;;;;;23.30;51.31;101444.13;107295;1260;60014;-86
2023/06/09 09:52:37;;;;;;;;;;;;;;;23.26;51.27;101443.48;107319;1260;124698;-86
2023/06/09 09:55:10;;;;;;;;;;;;;;;23.29;51.30;101445.39;107422;1261;74746;-87
2023/06/09 09:57:39;;;;;;;;;;;;;;;23.31;51.16;101444.11;107328;1260;124490;-86
2023/06/09 10:00:13;;;;;;;;;;;;;;;23.33;50.82;101443.74;107415;1261;71104;-86
2023/06/09 10:02:51;;;;;;;;;;;;;;;23.34;50.76;101444.78;107343;1261;61196;-86
2023/06/09 10:05:27;;;;;;;;;;;;;;;23.33;50.51;101443.03;107175;1260;124354;-86
2023/06/09 10:08:02;;;;;;;;;;;;;;;23.28;50.67;101441.66;107222;1263;74726;-86
2023/06/09 10:10:38;;;;;;;;;;;;;;;23.34;50.69;101443.53;107012;1260;124584;-87
2023/06/09 10:13:11;;;;;;;;;;;;;;;23.43;50.56;101440.15;107271;1262;71148;-86
2023/06/09 10:15:37;;;;;;;;;;;;;;;23.40;50.49;101443.43;107037;1262;124460;-87
2023/06/09 10:18:16;;;;;;;;;;;;;;;23.36;50.32;101443.48;107216;1260;61138;-86
2023/06/09 10:20:42;;;;;;;;;;;;;;;23.39;50.64;101444.70;107206;1261;73350;-86
2023/06/09 10:23:09;;;;;;;;;;;;;;;23.41;50.76;101444.86;106959;1260;124273;-85
2023/06/09 10:25:48;;;;;;;;;;;;;;;23.49;50.44;101449.73;107300;1260;61377;-87
2023/06/09 10:28:16;;;;;;;;;;;;;;;23.45;49.96;101449.08;107003;1262;124868;-86
2023/06/09 10:30:43;;;;;;;;;;;;;;;23.37;49.91;101449.04;107376;1261;61424;-86
2023/06/09 10:33:32;;;;;;;;;;;;;;;23.33;50.00;101448.39;107352;1260;125042;-86
2023/06/09 10:36:05;;;;;;;;;;;;;;;23.27;49.66;101445.98;107368;1261;65753;-88
2023/06/09 10:38:59;;;;;;;;;;;;;;;23.19;50.06;101442.54;107139;1261;70521;-86
2023/06/09 10:41:29;;;;;;;;;;;;;;;23.09;49.98;101440.00;106962;1261;123188;-86
2023/06/09 10:44:30;;;;;;;;;;;;;;;23.04;50.04;101435.95;107278;1261;61281;-85
2023/06/09 10:46:56;;;;;;;;;;;;;;;23.04;50.18;101437.77;106936;1264;124506;-85
2023/06/09 10:49:45;;;;;;;;;;;;;;;23.01;50.15;101441.35;107324;1260;61344;-85
2023/06/09 10:52:30;;;;;;;;;;;;;;;22.96;50.34;101442.16;107095;1261;124187;-85
2023/06/09 10:55:12;;;;;;;;;;;;;;;22.94;50.71;101438.41;107106;1261;59533;-85
2023/06/09 10:57:46;;;;;;;;;;;;;;;23.01;50.84;101438.49;107159;1260;124626;-86
2023/06/09 11:00:13;;;;;;;;;;;;;;;23.02;50.83;101439.73;107150;1260;74746;-85
2023/06/09 11:05:41;;;;;;;;;;;;;;;22.91;50.78;101440.25;107183;1260;124766;-86
2023/06/09 11:08:12;;;;;;;;;;;;;;;22.90;51.02;101442.23;106784;1261;60166;-85
2023/06/09 11:10:45;;;;;;;;;;;;;;;22.89;51.19;101442.96;106821;1261;124136;-85
2023/06/09 11:13:31;;;;;;;;;;;;;;;22.88;51.18;101443.70;107172;1261;74539;-85
2023/06/09 11:16:01;;;;;;;;;;;;;;;22.86;51.33;101443.90;107011;1261;124207;-85
2023/06/09 11:18:28;;;;;;;;;;;;;;;22.87;51.48;101443.70;107029;1260;72591;-85
2023/06/09 11:21:07;;;;;;;;;;;;;;;22.84;51.52;101439.82;106856;1260;59858;-85
2023/06/09 11:23:55;;;;;;;;;;;;;;;22.81;51.54;101438.80;107130;1263;124370;-84
2023/06/09 11:26:40;;;;;;;;;;;;;;;22.83;51.83;101437.52;107223;1266;73481;-85
2023/06/09 11:29:19;;;;;;;;;;;;;;;22.81;51.80;101435.94;107134;1260;67280;-85
2023/06/09 11:31:54;;;;;;;;;;;;;;;22.74;51.77;101436.92;107108;1262;71285;-86
2023/06/09 11:34:42;;;;;;;;;;;;;;;22.71;52.08;101435.34;107021;1262;61237;-85
2023/06/09 11:37:11;;;;;;;;;;;;;;;22.69;51.99;101436.63;107210;1261;61160;-86
2023/06/09 11:39:43;;;;;;;;;;;;;;;22.66;52.17;101434.17;107319;1261;74574;-85
2023/06/09 11:42:10;;;;;;;;;;;;;;;22.61;52.26;101437.28;107081;1265;65254;-86
2023/06/09 11:44:36;;;;;;;;;;;;;;;22.51;52.58;101431.70;107265;1261;71561;-85
2023/06/09 11:47:23;;;;;;;;;;;;;;;22.50;52.89;101435.84;107118;1262;124212;-85
2023/06/09 11:50:09;;;;;;;;;;;;;;;22.52;53.16;101432.05;107377;1260;60320;-85
2023/06/09 11:52:36;;;;;;;;;;;;;;;22.54;53.10;101436.13;107195;1262;124280;-85
2023/06/09 11:55:04;;;;;;;;;;;;;;;22.51;53.18;101428.66;107201;1262;65774;-85
2023/06/09 11:57:37;;;;;;;;;;;;;;;22.54;53.26;101440.96;107057;1262;124436;-84
2023/06/09 12:00:14;;;;;;;;;;;;;;;22.47;53.25;101428.54;107109;1267;61147;-84
2023/06/09 12:02:50;;;;;;;;;;;;;;;22.44;53.39;101430.01;107313;1260;61292;-85
2023/06/09 12:05:17;;;;;;;;;;;;;;;22.44;53.49;101431.27;107258;1262;124366;-84
2023/06/09 12:07:44;;;;;;;;;;;;;;;22.42;53.45;101436.64;107348;1260;67460;-84
2023/06/09 12:10:10;;;;;;;;;;;;;;;22.37;53.47;101433.52;107042;1261;125019;-84
2023/06/09 12:12:51;;;;;;;;;;;;;;;22.29;53.52;101435.21;107178;1266;60992;-86
2023/06/09 12:15:18;;;;;;;;;;;;;;;22.19;53.82;101435.48;107188;1260;61199;-85
2023/06/09 12:17:52;;;;;;;;;;;;;;;22.15;53.98;101431.05;107352;1262;76444;-86
2023/06/09 12:23:18;;;;;;;;;;;;;;;22.24;54.39;101423.63;107312;1263;124807;-87
2023/06/09 12:25:48;;;;;;;;;;;;;;;22.26;54.22;101420.03;107313;1264;60805;-90
2023/06/09 12:28:23;;;;;;;;;;;;;;;22.24;54.31;101422.01;107169;1260;124436;-87
2023/06/09 12:31:08;;;;;;;;;;;;;;;22.21;54.19;101429.56;107370;1260;74567;-86
2023/06/09 12:33:37;;;;;;;;;;;;;;;22.04;54.15;101431.71;107183;1262;124938;-84
2023/06/09 12:36:13;;;;;;;;;;;;;;;21.96;54.33;101435.92;107322;1264;72637;-88
2023/06/09 12:38:45;;;;;;;;;;;;;;;21.85;54.31;101435.50;107206;1263;61126;-84
2023/06/09 12:41:14;;;;;;;;;;;;;;;21.80;54.73;101429.49;107274;1260;124362;-83